NetherlandsFixed distance
Centurion Schiedam
26 May2012
Distance
50mi
Finishers
4840 men8 women
Winning time
9:22:03h
Median pace
6.85km/h
Pace distribution
48 finishers · 5.25–8.59 km/h · mean 6.79
Every finisher ran the same 50 mi course, so these paces are directly comparable.
Histogram of finisher pace. 48 finishers ranged from 5.25 to 8.59 kilometres per hour, with a mean of 6.79 and a median of 6.85. The busiest band is 6.5 to 7.0 kilometres per hour, with 21 finishers.
Results
Ranks 1–48 of 48
| Rank | Runner | Time | Pace | Cat. | Placing |
|---|---|---|---|---|---|
| 1 | RWV | 9:22:03h | 8.59 | M35 | 1st M · 1st M35 |
| 2 | RWV | 9:43:40h | 8.27 | M50 | 2nd M · 1st M50 |
| 3 | RWV | 10:27:37h | 7.69 | M65 | 3rd M · 1st M65 |
| 4 | SV de LAT | 10:27:37h | 7.69 | M45 | 3rd M · 1st M45 |
| 5 | Avaac | 10:34:19h | 7.61 | M50 | 5th M · 2nd M50 |
| 6 | RWV | 10:36:01h | 7.59 | M50 | 6th M · 3rd M50 |
| 7 | Olat | 10:44:33h | 7.49 | M45 | 7th M · 2nd M45 |
| 8 | Olat | 10:49:37h | 7.43 | M45 | 8th M · 3rd M45 |
| 9 | WK DIO | 10:54:35h | 7.38 | M23 | 9th M · 1st M23 |
| 10 | SV de LAT | 10:57:16h | 7.35 | M60 | 10th M · 1st M60 |
| 11 | Haaglanden | 11:06:01h | 7.25 | M55 | 11th M · 1st M55 |
| 12 | WS'78 | 11:11:13h | 7.19 | M45 | 12th M · 4th M45 |
| 13 | RWV | 11:15:23h | 7.15 | M65 | 13th M · 2nd M65 |
| 14 | 11:19:20h | 7.11 | MU23 | 14th M · 1st MU23 | |
| 15 | Birchfield | 11:26:47h | 7.03 | W50 | 1st F · 1st W50 |
| 16 | Colmschate | 11:34:31h | 6.95 | M23 | 15th M · 2nd M23 |
| 17 | RWV | 11:37:43h | 6.92 | M60 | 16th M · 2nd M60 |
| 18 | Olat | 11:37:43h | 6.92 | M40 | 16th M · 1st M40 |
| 19 | Knblo-NL | 11:39:58h | 6.90 | M50 | 18th M · 4th M50 |
| 20 | Olat | 11:42:02h | 6.88 | M55 | 19th M · 2nd M55 |
| 21 | WSV Dordtse Vierdaagse | 11:43:15h | 6.87 | M40 | 20th M · 2nd M40 |
| 22 | SV de LAT | 11:44:19h | 6.86 | W55 | 2nd F · 1st W55 |
| 23 | 11:44:53h | 6.85 | M23 | 21st M · 3rd M23 | |
| 24 | Veldlopers | 11:44:53h | 6.85 | M50 | 21st M · 5th M50 |
| 25 | Knblo-NL | 11:44:53h | 6.85 | M50 | 21st M · 5th M50 |
| 26 | RWV | 11:45:40h | 6.84 | W50 | 3rd F · 2nd W50 |
| 27 | Kring Gelderland | 11:48:22h | 6.82 | M60 | 24th M · 3rd M60 |
| 28 | RWV | 11:48:40h | 6.81 | W40 | 4th F · 1st W40 |
| 29 | WS'78 | 11:53:12h | 6.77 | M45 | 25th M · 5th M45 |
| 30 | Olat | 11:55:15h | 6.75 | W55 | 5th F · 2nd W55 |
| 31 | RWV | 11:55:15h | 6.75 | M55 | 26th M · 3rd M55 |
| 32 | Gouden-Kruisdragers | 11:55:27h | 6.75 | M45 | 27th M · 6th M45 |
| 33 | WS'78, Olat | 11:57:55h | 6.72 | M40 | 28th M · 3rd M40 |
| 34 | Olat | 12:03:46h | 6.67 | M55 | 29th M · 4th M55 |
| 35 | Knblo-NL | 12:06:41h | 6.64 | M50 | 30th M · 7th M50 |
| 36 | Knblo-NL | 12:19:52h | 6.53 | M70 | 31st M · 1st M70 |
| 37 | Knblo-NL | 12:30:10h | 6.44 | M50 | 32nd M · 8th M50 |
| 38 | WS'78 | 12:54:49h | 6.23 | M60 | 33rd M · 4th M60 |
| 39 | Olat | 13:06:36h | 6.14 | M23 | 34th M · 4th M23 |
| 40 | Knblo-NL | 13:09:23h | 6.12 | W45 | 6th F · 1st W45 |
| 41 | Rwsv Zuid-Holland | 13:09:23h | 6.12 | M55 | 35th M · 5th M55 |
| 42 | 13:12:23h | 6.09 | M55 | 36th M · 6th M55 | |
| 43 | 13:12:23h | 6.09 | M50 | 36th M · 9th M50 | |
| 44 | Knblo-NL | 13:53:22h | 5.79 | W35 | 7th F · 1st W35 |
| 45 | Birchfield | 14:33:19h | 5.53 | M35 | 38th M · 2nd M35 |
| 46 | WSV Dordtse Vierdaagse | 15:15:30h | 5.27 | W50 | 8th F · 3rd W50 |
| 47 | RWV | 15:15:30h | 5.27 | M75 | 39th M · 1st M75 |
| 48 | 15:19:56h | 5.25 | M35 | 40th M · 3rd M35 |
- 1RWV1st M · 1st M35Time9:22:03hPace8.59Cat.M35
- 2RWV2nd M · 1st M50Time9:43:40hPace8.27Cat.M50
- 3RWV3rd M · 1st M65Time10:27:37hPace7.69Cat.M65
- 4SV de LAT3rd M · 1st M45Time10:27:37hPace7.69Cat.M45
- 5Avaac5th M · 2nd M50Time10:34:19hPace7.61Cat.M50
- 6RWV6th M · 3rd M50Time10:36:01hPace7.59Cat.M50
- 7Olat7th M · 2nd M45Time10:44:33hPace7.49Cat.M45
- 8Olat8th M · 3rd M45Time10:49:37hPace7.43Cat.M45
- 9WK DIO9th M · 1st M23Time10:54:35hPace7.38Cat.M23
- 10SV de LAT10th M · 1st M60Time10:57:16hPace7.35Cat.M60
- 11Haaglanden11th M · 1st M55Time11:06:01hPace7.25Cat.M55
- 12WS'7812th M · 4th M45Time11:11:13hPace7.19Cat.M45
- 13RWV13th M · 2nd M65Time11:15:23hPace7.15Cat.M65
- 1414th M · 1st MU23Time11:19:20hPace7.11Cat.MU23
- 15Birchfield1st F · 1st W50Time11:26:47hPace7.03Cat.W50
- 16Colmschate15th M · 2nd M23Time11:34:31hPace6.95Cat.M23
- 17RWV16th M · 2nd M60Time11:37:43hPace6.92Cat.M60
- 18Olat16th M · 1st M40Time11:37:43hPace6.92Cat.M40
- 19Knblo-NL18th M · 4th M50Time11:39:58hPace6.90Cat.M50
- 20Olat19th M · 2nd M55Time11:42:02hPace6.88Cat.M55
- 21WSV Dordtse Vierdaagse20th M · 2nd M40Time11:43:15hPace6.87Cat.M40
- 22SV de LAT2nd F · 1st W55Time11:44:19hPace6.86Cat.W55
- 2321st M · 3rd M23Time11:44:53hPace6.85Cat.M23
- 24Veldlopers21st M · 5th M50Time11:44:53hPace6.85Cat.M50
- 25Knblo-NL21st M · 5th M50Time11:44:53hPace6.85Cat.M50
- 26RWV3rd F · 2nd W50Time11:45:40hPace6.84Cat.W50
- 27Kring Gelderland24th M · 3rd M60Time11:48:22hPace6.82Cat.M60
- 28RWV4th F · 1st W40Time11:48:40hPace6.81Cat.W40
- 29WS'7825th M · 5th M45Time11:53:12hPace6.77Cat.M45
- 30Olat5th F · 2nd W55Time11:55:15hPace6.75Cat.W55
- 31RWV26th M · 3rd M55Time11:55:15hPace6.75Cat.M55
- 32Gouden-Kruisdragers27th M · 6th M45Time11:55:27hPace6.75Cat.M45
- 33WS'78, Olat28th M · 3rd M40Time11:57:55hPace6.72Cat.M40
- 34Olat29th M · 4th M55Time12:03:46hPace6.67Cat.M55
- 35Knblo-NL30th M · 7th M50Time12:06:41hPace6.64Cat.M50
- 36Knblo-NL31st M · 1st M70Time12:19:52hPace6.53Cat.M70
- 37Knblo-NL32nd M · 8th M50Time12:30:10hPace6.44Cat.M50
- 38WS'7833rd M · 4th M60Time12:54:49hPace6.23Cat.M60
- 39Olat34th M · 4th M23Time13:06:36hPace6.14Cat.M23
- 40Knblo-NL6th F · 1st W45Time13:09:23hPace6.12Cat.W45
- 41Rwsv Zuid-Holland35th M · 5th M55Time13:09:23hPace6.12Cat.M55
- 4236th M · 6th M55Time13:12:23hPace6.09Cat.M55
- 4336th M · 9th M50Time13:12:23hPace6.09Cat.M50
- 44Knblo-NL7th F · 1st W35Time13:53:22hPace5.79Cat.W35
- 45Birchfield38th M · 2nd M35Time14:33:19hPace5.53Cat.M35
- 46WSV Dordtse Vierdaagse8th F · 3rd W50Time15:15:30hPace5.27Cat.W50
- 47RWV39th M · 1st M75Time15:15:30hPace5.27Cat.M75
- 4840th M · 3rd M35Time15:19:56hPace5.25Cat.M35